^^
Station Historical Data
Daily Summary for October 24, 2017 Units:  Both    English   Metric
« Previous Day
Next Day »
Daily Weekly Monthly Yearly Custom
  High: Low: Average:
Temperature: TemperatureF °F /  -17.8 °C 58.6 °F /  14.8 °C 75.1 °F /  23.9 °C
Dew Point: DewpointF °F /  -17.8 °C 20.7 °F /  -6.3 °C 32.9 °F /  0.5 °C
Humidity: Humidity% 8% 25%
Wind Speed: WindSpeedMPHmph /  0km/h - 1.9mph /  3.1km/h
Wind Gust: WindSpeedGustMPHmph /  0km/h - -
Wind- - WSW
Pressure: PressureIn in /  0 hPa 29.68 in /  1005 hPa -
Precipitation: 0.00 in /  0 mm    
Historical Graphs
 
 
Tabular Data for October 24, 2017
Time Temperature Dew Point Pressure Wind Wind Speed Wind Gust Humidity Rainfall Rate (Hourly) solar Conditions
TemperatureF °F /  -17.8 °C DewpointF °F /  -17.8 °C PressureInin /  0hPa Calm     Humidity% HourlyPrecipInin /  0mm SolarRadiationWatts/m^2 W/m2 Conditions
00:04 64.8 °F /  18.2 °C 30.0 °F /  -1.1 °C 29.83in /  1010hPa Calm     27% 0.00in /  0mm 0.0 W/m2
00:09 64.6 °F /  18.1 °C 29.8 °F /  -1.2 °C 29.83in /  1010hPa East 0.9mph /  1.4km/h 1.0mph /  1.6km/h 27% 0.00in /  0mm 0.0 W/m2
00:14 64.2 °F /  17.9 °C 29.5 °F /  -1.4 °C 29.83in /  1010hPa Calm     27% 0.00in /  0mm 0.0 W/m2
00:19 64.0 °F /  17.8 °C 29.3 °F /  -1.5 °C 29.83in /  1010hPa Calm     27% 0.00in /  0mm 0.0 W/m2
00:24 63.9 °F /  17.7 °C 29.3 °F /  -1.5 °C 29.83in /  1010hPa Calm     27% 0.00in /  0mm 0.0 W/m2
00:34 63.7 °F /  17.6 °C 28.2 °F /  -2.1 °C 29.82in /  1009.7hPa Calm     26% 0.00in /  0mm 0.0 W/m2
00:39 63.3 °F /  17.4 °C 27.9 °F /  -2.3 °C 29.82in /  1009.7hPa Calm   1.0mph /  1.6km/h 26% 0.00in /  0mm 0.0 W/m2
00:45 63.3 °F /  17.4 °C 27.9 °F /  -2.3 °C 29.82in /  1009.7hPa Calm     26% 0.00in /  0mm 0.0 W/m2
00:50 63.1 °F /  17.3 °C 28.6 °F /  -1.9 °C 29.82in /  1009.7hPa Calm     27% 0.00in /  0mm 0.0 W/m2
00:55 63.0 °F /  17.2 °C 28.4 °F /  -2 °C 29.82in /  1009.7hPa Calm     27% 0.00in /  0mm 0.0 W/m2
01:00 63.0 °F /  17.2 °C 28.4 °F /  -2 °C 29.82in /  1009.7hPa Calm     27% 0.00in /  0mm 0.0 W/m2
01:05 63.0 °F /  17.2 °C 27.5 °F /  -2.5 °C 29.82in /  1009.7hPa Calm   2.0mph /  3.2km/h 26% 0.00in /  0mm 0.0 W/m2
01:10 63.0 °F /  17.2 °C 27.5 °F /  -2.5 °C 29.82in /  1009.7hPa SE 0.9mph /  1.4km/h 3.0mph /  4.8km/h 26% 0.00in /  0mm 0.0 W/m2
01:15 63.0 °F /  17.2 °C 27.5 °F /  -2.5 °C 29.81in /  1009.4hPa Calm   2.0mph /  3.2km/h 26% 0.00in /  0mm 0.0 W/m2
01:20 63.0 °F /  17.2 °C 27.5 °F /  -2.5 °C 29.81in /  1009.4hPa East 4.0mph /  6.4km/h 4.0mph /  6.4km/h 26% 0.00in /  0mm 0.0 W/m2
01:25 63.0 °F /  17.2 °C 26.6 °F /  -3 °C 29.81in /  1009.4hPa Calm   2.0mph /  3.2km/h 25% 0.00in /  0mm 0.0 W/m2
01:30 63.0 °F /  17.2 °C 26.6 °F /  -3 °C 29.80in /  1009hPa East 0.9mph /  1.4km/h 2.0mph /  3.2km/h 25% 0.00in /  0mm 0.0 W/m2
01:36 63.0 °F /  17.2 °C 26.6 °F /  -3 °C 29.80in /  1009hPa Calm   2.0mph /  3.2km/h 25% 0.00in /  0mm 0.0 W/m2
01:41 63.0 °F /  17.2 °C 26.6 °F /  -3 °C 29.81in /  1009.4hPa Calm   3.0mph /  4.8km/h 25% 0.00in /  0mm 0.0 W/m2
01:46 63.0 °F /  17.2 °C 26.6 °F /  -3 °C 29.80in /  1009hPa ESE 2.0mph /  3.2km/h 3.0mph /  4.8km/h 25% 0.00in /  0mm 0.0 W/m2
01:51 63.0 °F /  17.2 °C 27.5 °F /  -2.5 °C 29.80in /  1009hPa ESE 0.9mph /  1.4km/h 3.0mph /  4.8km/h 26% 0.00in /  0mm 0.0 W/m2
01:56 63.0 °F /  17.2 °C 27.5 °F /  -2.5 °C 29.80in /  1009hPa Calm   1.0mph /  1.6km/h 26% 0.00in /  0mm 0.0 W/m2
02:01 63.0 °F /  17.2 °C 27.5 °F /  -2.5 °C 29.80in /  1009hPa ENE 2.0mph /  3.2km/h 2.0mph /  3.2km/h 26% 0.00in /  0mm 0.0 W/m2
02:06 63.0 °F /  17.2 °C 27.5 °F /  -2.5 °C 29.80in /  1009hPa East 0.9mph /  1.4km/h 2.0mph /  3.2km/h 26% 0.00in /  0mm 0.0 W/m2
02:11 63.0 °F /  17.2 °C 28.4 °F /  -2 °C 29.80in /  1009hPa Calm   1.0mph /  1.6km/h 27% 0.00in /  0mm 0.0 W/m2
02:16 63.0 °F /  17.2 °C 29.3 °F /  -1.5 °C 29.79in /  1008.7hPa Calm   1.0mph /  1.6km/h 28% 0.00in /  0mm 0.0 W/m2
02:22 63.0 °F /  17.2 °C 29.3 °F /  -1.5 °C 29.79in /  1008.7hPa Calm   1.0mph /  1.6km/h 28% 0.00in /  0mm 0.0 W/m2
02:27 62.8 °F /  17.1 °C 30.0 °F /  -1.1 °C 29.79in /  1008.7hPa Calm   1.0mph /  1.6km/h 29% 0.00in /  0mm 0.0 W/m2
02:32 62.8 °F /  17.1 °C 30.9 °F /  -0.6 °C 29.79in /  1008.7hPa Calm     30% 0.00in /  0mm 0.0 W/m2
02:37 62.8 °F /  17.1 °C 31.6 °F /  -0.2 °C 29.79in /  1008.7hPa East 0.9mph /  1.4km/h 1.0mph /  1.6km/h 31% 0.00in /  0mm 0.0 W/m2
02:42 62.6 °F /  17 °C 32.4 °F /  0.2 °C 29.79in /  1008.7hPa East 0.9mph /  1.4km/h 1.0mph /  1.6km/h 32% 0.00in /  0mm 0.0 W/m2
02:47 62.6 °F /  17 °C 33.1 °F /  0.6 °C 29.79in /  1008.7hPa Calm   1.0mph /  1.6km/h 33% 0.00in /  0mm 0.0 W/m2
02:52 62.6 °F /  17 °C 33.1 °F /  0.6 °C 29.79in /  1008.7hPa Calm   1.0mph /  1.6km/h 33% 0.00in /  0mm 0.0 W/m2
02:57 62.8 °F /  17.1 °C 33.3 °F /  0.7 °C 29.79in /  1008.7hPa Calm   1.0mph /  1.6km/h 33% 0.00in /  0mm 0.0 W/m2
03:02 62.8 °F /  17.1 °C 33.3 °F /  0.7 °C 29.78in /  1008.4hPa Calm   1.0mph /  1.6km/h 33% 0.00in /  0mm 0.0 W/m2
03:08 62.8 °F /  17.1 °C 34.0 °F /  1.1 °C 29.78in /  1008.4hPa Calm   2.0mph /  3.2km/h 34% 0.00in /  0mm 0.0 W/m2
03:13 62.6 °F /  17 °C 34.5 °F /  1.4 °C 29.78in /  1008.4hPa Calm     35% 0.00in /  0mm 0.0 W/m2
03:18 62.4 °F /  16.9 °C 35.1 °F /  1.7 °C 29.78in /  1008.4hPa Calm   2.0mph /  3.2km/h 36% 0.00in /  0mm 0.0 W/m2
03:23 62.4 °F /  16.9 °C 36.5 °F /  2.5 °C 29.78in /  1008.4hPa Calm   1.0mph /  1.6km/h 38% 0.00in /  0mm 0.0 W/m2
03:28 62.4 °F /  16.9 °C 37.2 °F /  2.9 °C 29.78in /  1008.4hPa Calm     39% 0.00in /  0mm 0.0 W/m2
03:33 62.2 °F /  16.8 °C 37.6 °F /  3.1 °C 29.78in /  1008.4hPa Calm     40% 0.00in /  0mm 0.0 W/m2
03:38 62.4 °F /  16.9 °C 38.5 °F /  3.6 °C 29.78in /  1008.4hPa Calm     41% 0.00in /  0mm 0.0 W/m2
03:43 62.4 °F /  16.9 °C 39.0 °F /  3.9 °C 29.78in /  1008.4hPa Calm     42% 0.00in /  0mm 0.0 W/m2
03:48 62.2 °F /  16.8 °C 38.8 °F /  3.8 °C 29.78in /  1008.4hPa Calm     42% 0.00in /  0mm 0.0 W/m2
03:54 62.2 °F /  16.8 °C 39.4 °F /  4.1 °C 29.77in /  1008hPa Calm   1.0mph /  1.6km/h 43% 0.00in /  0mm 0.0 W/m2
03:59 62.2 °F /  16.8 °C 39.4 °F /  4.1 °C 29.77in /  1008hPa Calm     43% 0.00in /  0mm 0.0 W/m2
04:04 62.2 °F /  16.8 °C 40.1 °F /  4.5 °C 29.77in /  1008hPa Calm     44% 0.00in /  0mm 0.0 W/m2
04:09 62.2 °F /  16.8 °C 40.1 °F /  4.5 °C 29.77in /  1008hPa Calm     44% 0.00in /  0mm 0.0 W/m2
04:14 62.1 °F /  16.7 °C 41.0 °F /  5 °C 29.77in /  1008hPa Calm     46% 0.00in /  0mm 0.0 W/m2
04:19 62.1 °F /  16.7 °C 41.0 °F /  5 °C 29.77in /  1008hPa Calm     46% 0.00in /  0mm 0.0 W/m2
04:24 62.1 °F /  16.7 °C 41.5 °F /  5.3 °C 29.76in /  1007.7hPa Calm     47% 0.00in /  0mm 0.0 W/m2
04:29 61.9 °F /  16.6 °C 41.4 °F /  5.2 °C 29.76in /  1007.7hPa Calm     47% 0.00in /  0mm 0.0 W/m2
04:35 61.7 °F /  16.5 °C 41.9 °F /  5.5 °C 29.76in /  1007.7hPa Calm     48% 0.00in /  0mm 0.0 W/m2
04:40 61.5 °F /  16.4 °C 41.7 °F /  5.4 °C 29.76in /  1007.7hPa Calm     48% 0.00in /  0mm 0.0 W/m2
04:45 61.3 °F /  16.3 °C 41.0 °F /  5 °C 29.76in /  1007.7hPa Calm     47% 0.00in /  0mm 0.0 W/m2
04:50 61.2 °F /  16.2 °C 41.4 °F /  5.2 °C 29.76in /  1007.7hPa Calm     48% 0.00in /  0mm 0.0 W/m2
04:55 61.2 °F /  16.2 °C 41.4 °F /  5.2 °C 29.76in /  1007.7hPa Calm     48% 0.00in /  0mm 0.0 W/m2
05:00 61.0 °F /  16.1 °C 41.2 °F /  5.1 °C 29.76in /  1007.7hPa Calm     48% 0.00in /  0mm 0.0 W/m2
05:05 61.0 °F /  16.1 °C 41.2 °F /  5.1 °C 29.76in /  1007.7hPa Calm     48% 0.00in /  0mm 0.0 W/m2
05:15 60.6 °F /  15.9 °C 40.8 °F /  4.9 °C 29.76in /  1007.7hPa Calm     48% 0.00in /  0mm 0.0 W/m2
05:20 60.4 °F /  15.8 °C 41.2 °F /  5.1 °C 29.76in /  1007.7hPa Calm   6.0mph /  9.7km/h 49% 0.00in /  0mm 0.0 W/m2
05:24 60.4 °F /  15.8 °C 41.2 °F /  5.1 °C 29.76in /  1007.7hPa Calm   4.0mph /  6.4km/h 49% 0.00in /  0mm 0.0 W/m2
05:29 60.4 °F /  15.8 °C 40.6 °F /  4.8 °C 29.76in /  1007.7hPa ENE 2.9mph /  4.7km/h 3.0mph /  4.8km/h 48% 0.00in /  0mm 0.0 W/m2
05:36 60.4 °F /  15.8 °C 41.2 °F /  5.1 °C 29.76in /  1007.7hPa Calm   2.0mph /  3.2km/h 49% 0.00in /  0mm 0.0 W/m2
05:40 60.4 °F /  15.8 °C 41.2 °F /  5.1 °C 29.76in /  1007.7hPa ENE 0.9mph /  1.4km/h 2.0mph /  3.2km/h 49% 0.00in /  0mm 0.0 W/m2
05:45 60.4 °F /  15.8 °C 41.2 °F /  5.1 °C 29.76in /  1007.7hPa Calm   2.0mph /  3.2km/h 49% 0.00in /  0mm 0.0 W/m2
05:50 60.4 °F /  15.8 °C 41.7 °F /  5.4 °C 29.76in /  1007.7hPa Calm   2.0mph /  3.2km/h 50% 0.00in /  0mm 0.0 W/m2
05:55 60.3 °F /  15.7 °C 41.5 °F /  5.3 °C 29.76in /  1007.7hPa Calm     50% 0.00in /  0mm 0.0 W/m2
06:00 60.1 °F /  15.6 °C 41.4 °F /  5.2 °C 29.76in /  1007.7hPa Calm     50% 0.00in /  0mm 0.0 W/m2
06:05 59.9 °F /  15.5 °C 41.7 °F /  5.4 °C 29.77in /  1008hPa Calm     51% 0.00in /  0mm 0.0 W/m2
06:10 59.7 °F /  15.4 °C 41.5 °F /  5.3 °C 29.77in /  1008hPa Calm     51% 0.00in /  0mm 0.0 W/m2
06:16 59.5 °F /  15.3 °C 41.4 °F /  5.2 °C 29.77in /  1008hPa Calm     51% 0.00in /  0mm 0.0 W/m2
06:21 59.4 °F /  15.2 °C 41.2 °F /  5.1 °C 29.77in /  1008hPa Calm     51% 0.00in /  0mm 5.0 W/m2
06:26 59.4 °F /  15.2 °C 41.7 °F /  5.4 °C 29.78in /  1008.4hPa Calm     52% 0.00in /  0mm 9.0 W/m2
06:32 59.2 °F /  15.1 °C 41.5 °F /  5.3 °C 29.78in /  1008.4hPa Calm     52% 0.00in /  0mm 14.0 W/m2
06:37 59.0 °F /  15 °C 41.9 °F /  5.5 °C 29.78in /  1008.4hPa Calm     53% 0.00in /  0mm 16.0 W/m2
06:42 58.8 °F /  14.9 °C 41.7 °F /  5.4 °C 29.78in /  1008.4hPa Calm     53% 0.00in /  0mm 19.0 W/m2
06:48 58.8 °F /  14.9 °C 41.7 °F /  5.4 °C 29.78in /  1008.4hPa Calm     53% 0.00in /  0mm 23.0 W/m2
06:53 58.6 °F /  14.8 °C 41.5 °F /  5.3 °C 29.79in /  1008.7hPa Calm     53% 0.00in /  0mm 25.0 W/m2
06:58 58.8 °F /  14.9 °C 42.3 °F /  5.7 °C 29.79in /  1008.7hPa Calm     54% 0.00in /  0mm 28.0 W/m2
07:03 58.8 °F /  14.9 °C 42.3 °F /  5.7 °C 29.79in /  1008.7hPa Calm     54% 0.00in /  0mm 30.0 W/m2
07:08 59.2 °F /  15.1 °C 42.6 °F /  5.9 °C 29.79in /  1008.7hPa Calm   1.0mph /  1.6km/h 54% 0.00in /  0mm 33.0 W/m2
07:14 59.5 °F /  15.3 °C 42.8 °F /  6 °C 29.79in /  1008.7hPa Calm   1.0mph /  1.6km/h 54% 0.00in /  0mm 35.0 W/m2
07:19 60.3 °F /  15.7 °C 43.0 °F /  6.1 °C 29.79in /  1008.7hPa Calm     53% 0.00in /  0mm 42.0 W/m2
07:24 60.6 °F /  15.9 °C 43.0 °F /  6.1 °C 29.79in /  1008.7hPa Calm     52% 0.00in /  0mm 46.0 W/m2
07:30 61.3 °F /  16.3 °C 43.5 °F /  6.4 °C 29.79in /  1008.7hPa ENE 0.9mph /  1.4km/h 3.0mph /  4.8km/h 52% 0.00in /  0mm 46.0 W/m2
07:35 62.2 °F /  16.8 °C 42.8 °F /  6 °C 29.79in /  1008.7hPa East 2.0mph /  3.2km/h 3.0mph /  4.8km/h 49% 0.00in /  0mm 44.0 W/m2
07:40 63.3 °F /  17.4 °C 43.3 °F /  6.3 °C 29.79in /  1008.7hPa East 2.9mph /  4.7km/h 3.0mph /  4.8km/h 48% 0.00in /  0mm 90.0 W/m2
07:46 64.4 °F /  18 °C 43.7 °F /  6.5 °C 29.79in /  1008.7hPa NE 2.0mph /  3.2km/h 2.0mph /  3.2km/h 47% 0.00in /  0mm 47.0 W/m2
07:51 65.5 °F /  18.6 °C 43.5 °F /  6.4 °C 29.79in /  1008.7hPa NE 0.9mph /  1.4km/h 5.0mph /  8km/h 45% 0.00in /  0mm 46.0 W/m2
07:56 66.2 °F /  19 °C 43.7 °F /  6.5 °C 29.79in /  1008.7hPa NE 0.9mph /  1.4km/h 2.0mph /  3.2km/h 44% 0.00in /  0mm 46.0 W/m2
08:01 66.7 °F /  19.3 °C 43.5 °F /  6.4 °C 29.79in /  1008.7hPa Calm   3.0mph /  4.8km/h 43% 0.00in /  0mm 47.0 W/m2
08:06 67.5 °F /  19.7 °C 43.5 °F /  6.4 °C 29.79in /  1008.7hPa NE 2.0mph /  3.2km/h 3.0mph /  4.8km/h 42% 0.00in /  0mm 49.0 W/m2
08:11 68.5 °F /  20.3 °C 43.9 °F /  6.6 °C 29.79in /  1008.7hPa East 2.9mph /  4.7km/h 4.0mph /  6.4km/h 41% 0.00in /  0mm 51.0 W/m2
08:16 69.4 °F /  20.8 °C 43.3 °F /  6.3 °C 29.79in /  1008.7hPa Calm   2.0mph /  3.2km/h 39% 0.00in /  0mm 77.0 W/m2
08:21 70.2 °F /  21.2 °C 43.3 °F /  6.3 °C 29.79in /  1008.7hPa North 0.9mph /  1.4km/h 4.0mph /  6.4km/h 38% 0.00in /  0mm 454.0 W/m2
08:27 71.2 °F /  21.8 °C 43.7 °F /  6.5 °C 29.79in /  1008.7hPa NNW 2.0mph /  3.2km/h 5.0mph /  8km/h 37% 0.00in /  0mm 476.0 W/m2
08:32 72.1 °F /  22.3 °C 44.4 °F /  6.9 °C 29.79in /  1008.7hPa Calm   5.0mph /  8km/h 37% 0.00in /  0mm 459.0 W/m2
08:37 73.2 °F /  22.9 °C 43.9 °F /  6.6 °C 29.79in /  1008.7hPa Calm   7.0mph /  11.3km/h 35% 0.00in /  0mm 374.0 W/m2
08:42 74.1 °F /  23.4 °C 44.8 °F /  7.1 °C 29.78in /  1008.4hPa West 2.9mph /  4.7km/h 4.0mph /  6.4km/h 35% 0.00in /  0mm 214.0 W/m2
08:47 74.5 °F /  23.6 °C 44.2 °F /  6.8 °C 29.78in /  1008.4hPa Calm   2.0mph /  3.2km/h 34% 0.00in /  0mm 318.0 W/m2
08:52 74.8 °F /  23.8 °C 44.6 °F /  7 °C 29.78in /  1008.4hPa NNW 2.9mph /  4.7km/h 7.0mph /  11.3km/h 34% 0.00in /  0mm 362.0 W/m2
08:57 75.0 °F /  23.9 °C 43.9 °F /  6.6 °C 29.78in /  1008.4hPa NNW 2.9mph /  4.7km/h 4.0mph /  6.4km/h 33% 0.00in /  0mm 387.0 W/m2
09:02 75.4 °F /  24.1 °C 44.2 °F /  6.8 °C 29.78in /  1008.4hPa NNW 2.0mph /  3.2km/h 7.0mph /  11.3km/h 33% 0.00in /  0mm 457.0 W/m2
09:08 75.7 °F /  24.3 °C 44.6 °F /  7 °C 29.78in /  1008.4hPa North 0.9mph /  1.4km/h 3.0mph /  4.8km/h 33% 0.00in /  0mm 387.0 W/m2
09:13 76.3 °F /  24.6 °C 44.2 °F /  6.8 °C 29.78in /  1008.4hPa NW 0.9mph /  1.4km/h 4.0mph /  6.4km/h 32% 0.00in /  0mm 469.0 W/m2
09:18 76.6 °F /  24.8 °C 43.7 °F /  6.5 °C 29.78in /  1008.4hPa Calm   2.0mph /  3.2km/h 31% 0.00in /  0mm 555.0 W/m2
09:23 77.4 °F /  25.2 °C 44.4 °F /  6.9 °C 29.78in /  1008.4hPa Calm   5.0mph /  8km/h 31% 0.00in /  0mm 684.0 W/m2
09:28 77.9 °F /  25.5 °C 43.2 °F /  6.2 °C 29.78in /  1008.4hPa West 2.0mph /  3.2km/h 5.0mph /  8km/h 29% 0.00in /  0mm 656.0 W/m2
09:33 78.4 °F /  25.8 °C 42.6 °F /  5.9 °C 29.78in /  1008.4hPa NW 4.9mph /  7.9km/h 6.0mph /  9.7km/h 28% 0.00in /  0mm 728.0 W/m2
09:38 79.0 °F /  26.1 °C 42.1 °F /  5.6 °C 29.78in /  1008.4hPa NNW 4.0mph /  6.4km/h 7.0mph /  11.3km/h 27% 0.00in /  0mm 729.0 W/m2
09:43 79.3 °F /  26.3 °C 42.4 °F /  5.8 °C 29.78in /  1008.4hPa NW 2.0mph /  3.2km/h 4.0mph /  6.4km/h 27% 0.00in /  0mm 668.0 W/m2
09:49 79.7 °F /  26.5 °C 40.8 °F /  4.9 °C 29.78in /  1008.4hPa Calm   5.0mph /  8km/h 25% 0.00in /  0mm 722.0 W/m2
09:54 80.2 °F /  26.8 °C 41.2 °F /  5.1 °C 29.78in /  1008.4hPa NNW 4.9mph /  7.9km/h 7.0mph /  11.3km/h 25% 0.00in /  0mm 805.0 W/m2
09:59 80.8 °F /  27.1 °C 39.6 °F /  4.2 °C 29.78in /  1008.4hPa Calm   5.0mph /  8km/h 23% 0.00in /  0mm 795.0 W/m2
10:05 81.5 °F /  27.5 °C 39.0 °F /  3.9 °C 29.78in /  1008.4hPa WNW 0.9mph /  1.4km/h 5.0mph /  8km/h 22% 0.00in /  0mm 784.0 W/m2
10:10 82.0 °F /  27.8 °C 41.7 °F /  5.4 °C 29.78in /  1008.4hPa NNW 2.0mph /  3.2km/h 2.0mph /  3.2km/h 24% 0.00in /  0mm 831.0 W/m2
10:15 82.4 °F /  28 °C 34.7 °F /  1.5 °C 29.78in /  1008.4hPa WNW 4.0mph /  6.4km/h 12.0mph /  19.3km/h 18% 0.00in /  0mm 752.0 W/m2
10:21 82.8 °F /  28.2 °C 36.3 °F /  2.4 °C 29.78in /  1008.4hPa NNW 2.9mph /  4.7km/h 6.0mph /  9.7km/h 19% 0.00in /  0mm 675.0 W/m2
10:26 82.8 °F /  28.2 °C 34.9 °F /  1.6 °C 29.78in /  1008.4hPa NW 0.9mph /  1.4km/h 3.0mph /  4.8km/h 18% 0.00in /  0mm 504.0 W/m2
10:31 82.8 °F /  28.2 °C 36.3 °F /  2.4 °C 29.78in /  1008.4hPa West 4.9mph /  7.9km/h 6.0mph /  9.7km/h 19% 0.00in /  0mm 612.0 W/m2
10:37 83.1 °F /  28.4 °C 35.2 °F /  1.8 °C 29.78in /  1008.4hPa NNE 0.9mph /  1.4km/h 3.0mph /  4.8km/h 18% 0.00in /  0mm 691.0 W/m2
10:43 83.7 °F /  28.7 °C 35.6 °F /  2 °C 29.77in /  1008hPa WNW 2.9mph /  4.7km/h 7.0mph /  11.3km/h 18% 0.00in /  0mm 650.0 W/m2
10:48 83.8 °F /  28.8 °C 35.8 °F /  2.1 °C 29.78in /  1008.4hPa NW 4.0mph /  6.4km/h 9.0mph /  14.5km/h 18% 0.00in /  0mm 635.0 W/m2
10:54 84.6 °F /  29.2 °C 33.4 °F /  0.8 °C 29.77in /  1008hPa West 2.9mph /  4.7km/h 7.0mph /  11.3km/h 16% 0.00in /  0mm 872.0 W/m2
10:59 85.3 °F /  29.6 °C 34.0 °F /  1.1 °C 29.77in /  1008hPa West 4.9mph /  7.9km/h 11.0mph /  17.7km/h 16% 0.00in /  0mm 773.0 W/m2
11:04 85.5 °F /  29.7 °C 32.5 °F /  0.3 °C 29.77in /  1008hPa NNW 8.1mph /  13km/h 9.0mph /  14.5km/h 15% 0.00in /  0mm 501.0 W/m2
11:10 85.5 °F /  29.7 °C 34.2 °F /  1.2 °C 29.77in /  1008hPa Calm   3.0mph /  4.8km/h 16% 0.00in /  0mm 974.0 W/m2
11:20 87.1 °F /  30.6 °C 30.2 °F /  -1 °C 29.77in /  1008hPa NNW 8.1mph /  13km/h 13.0mph /  20.9km/h 13% 0.00in /  0mm 886.0 W/m2
11:25 87.3 °F /  30.7 °C 30.4 °F /  -0.9 °C 29.77in /  1008hPa SE 2.9mph /  4.7km/h 10.0mph /  16.1km/h 13% 0.00in /  0mm 802.0 W/m2
11:30 87.1 °F /  30.6 °C 30.2 °F /  -1 °C 29.77in /  1008hPa NNW 4.0mph /  6.4km/h 12.0mph /  19.3km/h 13% 0.00in /  0mm 826.0 W/m2
11:36 87.1 °F /  30.6 °C 30.2 °F /  -1 °C 29.76in /  1007.7hPa WNW 2.9mph /  4.7km/h 6.0mph /  9.7km/h 13% 0.00in /  0mm 865.0 W/m2
11:41 87.1 °F /  30.6 °C 32.2 °F /  0.1 °C 29.76in /  1007.7hPa NNW 4.0mph /  6.4km/h 8.0mph /  12.9km/h 14% 0.00in /  0mm 773.0 W/m2
11:46 87.3 °F /  30.7 °C 30.4 °F /  -0.9 °C 29.76in /  1007.7hPa NW 2.0mph /  3.2km/h 5.0mph /  8km/h 13% 0.00in /  0mm 656.0 W/m2
11:52 87.3 °F /  30.7 °C 28.4 °F /  -2 °C 29.76in /  1007.7hPa West 4.9mph /  7.9km/h 10.0mph /  16.1km/h 12% 0.00in /  0mm 830.0 W/m2
11:57 87.4 °F /  30.8 °C 28.6 °F /  -1.9 °C 29.75in /  1007.3hPa West 8.9mph /  14.3km/h 9.0mph /  14.5km/h 12% 0.00in /  0mm 824.0 W/m2
12:02 87.4 °F /  30.8 °C 28.6 °F /  -1.9 °C 29.75in /  1007.3hPa North 2.9mph /  4.7km/h 7.0mph /  11.3km/h 12% 0.00in /  0mm 823.0 W/m2
12:08 88.0 °F /  31.1 °C 28.9 °F /  -1.7 °C 29.75in /  1007.3hPa NW 6.0mph /  9.7km/h 11.0mph /  17.7km/h 12% 0.00in /  0mm 752.0 W/m2
12:13 88.2 °F /  31.2 °C 29.1 °F /  -1.6 °C 29.75in /  1007.3hPa NNW 2.0mph /  3.2km/h 3.0mph /  4.8km/h 12% 0.00in /  0mm 809.0 W/m2
12:18 88.7 °F /  31.5 °C 27.5 °F /  -2.5 °C 29.75in /  1007.3hPa WSW 4.9mph /  7.9km/h 8.0mph /  12.9km/h 11% 0.00in /  0mm 954.0 W/m2
12:24 89.2 °F /  31.8 °C 27.9 °F /  -2.3 °C 29.75in /  1007.3hPa NNW 4.9mph /  7.9km/h 11.0mph /  17.7km/h 11% 0.00in /  0mm 680.0 W/m2
12:29 89.2 °F /  31.8 °C 27.9 °F /  -2.3 °C 29.75in /  1007.3hPa SW 0.9mph /  1.4km/h 12.0mph /  19.3km/h 11% 0.00in /  0mm 561.0 W/m2
12:34 88.9 °F /  31.6 °C 27.5 °F /  -2.5 °C 29.75in /  1007.3hPa WSW 4.0mph /  6.4km/h 8.0mph /  12.9km/h 11% 0.00in /  0mm 527.0 W/m2
12:40 88.3 °F /  31.3 °C 27.1 °F /  -2.7 °C 29.75in /  1007.3hPa WNW 2.0mph /  3.2km/h 8.0mph /  12.9km/h 11% 0.00in /  0mm 791.0 W/m2
12:45 88.3 °F /  31.3 °C 29.3 °F /  -1.5 °C 29.75in /  1007.3hPa NW 6.9mph /  11.1km/h 7.0mph /  11.3km/h 12% 0.00in /  0mm 991.0 W/m2
12:50 89.2 °F /  31.8 °C 25.5 °F /  -3.6 °C 29.75in /  1007.3hPa West 0.9mph /  1.4km/h 5.0mph /  8km/h 10% 0.00in /  0mm 930.0 W/m2
12:56 90.0 °F /  32.2 °C 26.1 °F /  -3.3 °C 29.75in /  1007.3hPa NNW 6.9mph /  11.1km/h 11.0mph /  17.7km/h 10% 0.00in /  0mm 893.0 W/m2
13:01 90.0 °F /  32.2 °C 26.1 °F /  -3.3 °C 29.74in /  1007hPa WNW 2.0mph /  3.2km/h 10.0mph /  16.1km/h 10% 0.00in /  0mm 921.0 W/m2
13:06 90.1 °F /  32.3 °C 26.2 °F /  -3.2 °C 29.74in /  1007hPa NW 8.1mph /  13km/h 14.0mph /  22.5km/h 10% 0.00in /  0mm 668.0 W/m2
13:11 89.8 °F /  32.1 °C 23.4 °F /  -4.8 °C 29.74in /  1007hPa NNW 6.9mph /  11.1km/h 13.0mph /  20.9km/h 9% 0.00in /  0mm 817.0 W/m2
13:16 89.6 °F /  32 °C 23.4 °F /  -4.8 °C 29.74in /  1007hPa WNW 2.0mph /  3.2km/h 10.0mph /  16.1km/h 9% 0.00in /  0mm 759.0 W/m2
13:21 89.8 °F /  32.1 °C 25.9 °F /  -3.4 °C 29.74in /  1007hPa NW 10.1mph /  16.3km/h 10.1mph /  16.3km/h 10% 0.00in /  0mm 1092.0 W/m2
13:26 89.8 °F /  32.1 °C 20.7 °F /  -6.3 °C 29.74in /  1007hPa West 10.1mph /  16.3km/h 15.0mph /  24.1km/h 8% 0.00in /  0mm 830.0 W/m2
13:31 89.1 °F /  31.7 °C 25.3 °F /  -3.7 °C 29.73in /  1006.7hPa WSW 2.9mph /  4.7km/h 7.0mph /  11.3km/h 10% 0.00in /  0mm 555.0 W/m2
13:36 89.1 °F /  31.7 °C 27.7 °F /  -2.4 °C 29.74in /  1007hPa West 2.9mph /  4.7km/h 11.0mph /  17.7km/h 11% 0.00in /  0mm 1030.0 W/m2
13:41 89.8 °F /  32.1 °C 25.9 °F /  -3.4 °C 29.73in /  1006.7hPa NW 2.0mph /  3.2km/h 7.0mph /  11.3km/h 10% 0.00in /  0mm 962.0 W/m2
13:47 90.1 °F /  32.3 °C 28.6 °F /  -1.9 °C 29.73in /  1006.7hPa NNW 6.9mph /  11.1km/h 7.0mph /  11.3km/h 11% 0.00in /  0mm 976.0 W/m2
13:52 90.9 °F /  32.7 °C 26.8 °F /  -2.9 °C 29.73in /  1006.7hPa Calm   7.0mph /  11.3km/h 10% 0.00in /  0mm 984.0 W/m2
13:57 91.0 °F /  32.8 °C 27.0 °F /  -2.8 °C 29.73in /  1006.7hPa West 11.0mph /  17.7km/h 11.0mph /  17.7km/h 10% 0.00in /  0mm 886.0 W/m2
14:02 90.0 °F /  32.2 °C 23.5 °F /  -4.7 °C 29.72in /  1006.3hPa West 6.0mph /  9.7km/h 10.0mph /  16.1km/h 9% 0.00in /  0mm 951.0 W/m2
14:07 89.8 °F /  32.1 °C 23.4 °F /  -4.8 °C 29.73in /  1006.7hPa West 8.1mph /  13km/h 8.1mph /  13km/h 9% 0.00in /  0mm 895.0 W/m2
14:12 90.0 °F /  32.2 °C 26.1 °F /  -3.3 °C 29.72in /  1006.3hPa Calm   7.0mph /  11.3km/h 10% 0.00in /  0mm 911.0 W/m2
14:18 90.3 °F /  32.4 °C 26.4 °F /  -3.1 °C 29.72in /  1006.3hPa WSW 2.9mph /  4.7km/h 10.0mph /  16.1km/h 10% 0.00in /  0mm 708.0 W/m2
14:23 90.1 °F /  32.3 °C 28.6 °F /  -1.9 °C 29.72in /  1006.3hPa WNW 4.9mph /  7.9km/h 11.0mph /  17.7km/h 11% 0.00in /  0mm 928.0 W/m2
14:28 90.3 °F /  32.4 °C 28.8 °F /  -1.8 °C 29.71in /  1006hPa West 4.9mph /  7.9km/h 9.0mph /  14.5km/h 11% 0.00in /  0mm 895.0 W/m2
14:33 90.9 °F /  32.7 °C 26.8 °F /  -2.9 °C 29.70in /  1005.6hPa West 8.1mph /  13km/h 10.0mph /  16.1km/h 10% 0.00in /  0mm 870.0 W/m2
14:38 91.2 °F /  32.9 °C 27.1 °F /  -2.7 °C 29.71in /  1006hPa WSW 6.9mph /  11.1km/h 8.0mph /  12.9km/h 10% 0.00in /  0mm 835.0 W/m2
14:43 91.0 °F /  32.8 °C 27.0 °F /  -2.8 °C 29.70in /  1005.6hPa WNW 4.0mph /  6.4km/h 15.0mph /  24.1km/h 10% 0.00in /  0mm 849.0 W/m2
14:48 91.2 °F /  32.9 °C 27.1 °F /  -2.7 °C 29.70in /  1005.6hPa Calm   7.0mph /  11.3km/h 10% 0.00in /  0mm 812.0 W/m2
14:53 91.9 °F /  33.3 °C 27.7 °F /  -2.4 °C 29.70in /  1005.6hPa North 6.0mph /  9.7km/h 8.0mph /  12.9km/h 10% 0.00in /  0mm 802.0 W/m2
14:59 92.1 °F /  33.4 °C 27.7 °F /  -2.4 °C 29.70in /  1005.6hPa NNW 2.9mph /  4.7km/h 13.0mph /  20.9km/h 10% 0.00in /  0mm 809.0 W/m2
15:04 92.1 °F /  33.4 °C 27.7 °F /  -2.4 °C 29.70in /  1005.6hPa WNW 2.0mph /  3.2km/h 9.0mph /  14.5km/h 10% 0.00in /  0mm 756.0 W/m2
15:09 91.9 °F /  33.3 °C 27.7 °F /  -2.4 °C 29.69in /  1005.3hPa West 2.9mph /  4.7km/h 13.0mph /  20.9km/h 10% 0.00in /  0mm 786.0 W/m2
15:15 91.8 °F /  33.2 °C 27.5 °F /  -2.5 °C 29.70in /  1005.6hPa West 4.9mph /  7.9km/h 9.0mph /  14.5km/h 10% 0.00in /  0mm 765.0 W/m2
15:20 91.8 °F /  33.2 °C 27.5 °F /  -2.5 °C 29.69in /  1005.3hPa Calm   5.0mph /  8km/h 10% 0.00in /  0mm 722.0 W/m2
15:25 91.9 °F /  33.3 °C 25.0 °F /  -3.9 °C 29.69in /  1005.3hPa WSW 4.0mph /  6.4km/h 8.0mph /  12.9km/h 9% 0.00in /  0mm 737.0 W/m2
15:30 92.1 °F /  33.4 °C 27.7 °F /  -2.4 °C 29.68in /  1005hPa WNW 2.9mph /  4.7km/h 6.0mph /  9.7km/h 10% 0.00in /  0mm 715.0 W/m2
15:35 92.1 °F /  33.4 °C 27.7 °F /  -2.4 °C 29.68in /  1005hPa NW 0.9mph /  1.4km/h 8.0mph /  12.9km/h 10% 0.00in /  0mm 165.0 W/m2
15:40 91.8 °F /  33.2 °C 27.5 °F /  -2.5 °C 29.68in /  1005hPa WNW 6.9mph /  11.1km/h 8.0mph /  12.9km/h 10% 0.00in /  0mm 631.0 W/m2
15:45 92.3 °F /  33.5 °C 27.9 °F /  -2.3 °C 29.68in /  1005hPa West 2.0mph /  3.2km/h 8.0mph /  12.9km/h 10% 0.00in /  0mm 698.0 W/m2
15:50 92.5 °F /  33.6 °C 28.0 °F /  -2.2 °C 29.68in /  1005hPa WNW 4.0mph /  6.4km/h 13.0mph /  20.9km/h 10% 0.00in /  0mm 599.0 W/m2
15:56 91.2 °F /  32.9 °C 24.4 °F /  -4.2 °C 29.68in /  1005hPa Calm   9.0mph /  14.5km/h 9% 0.00in /  0mm 274.0 W/m2
16:01 90.7 °F /  32.6 °C 24.1 °F /  -4.4 °C 29.68in /  1005hPa Calm   4.0mph /  6.4km/h 9% 0.00in /  0mm 315.0 W/m2
16:06 90.1 °F /  32.3 °C 23.7 °F /  -4.6 °C 29.68in /  1005hPa West 2.0mph /  3.2km/h 9.0mph /  14.5km/h 9% 0.00in /  0mm 264.0 W/m2
16:12 89.8 °F /  32.1 °C 23.4 °F /  -4.8 °C 29.68in /  1005hPa WNW 2.9mph /  4.7km/h 5.0mph /  8km/h 9% 0.00in /  0mm 264.0 W/m2
16:17 89.6 °F /  32 °C 23.4 °F /  -4.8 °C 29.68in /  1005hPa Calm   5.0mph /  8km/h 9% 0.00in /  0mm 264.0 W/m2
16:23 89.4 °F /  31.9 °C 23.2 °F /  -4.9 °C 29.68in /  1005hPa WSW 4.0mph /  6.4km/h 12.0mph /  19.3km/h 9% 0.00in /  0mm 230.0 W/m2
16:28 89.1 °F /  31.7 °C 25.3 °F /  -3.7 °C 29.68in /  1005hPa West 2.9mph /  4.7km/h 3.0mph /  4.8km/h 10% 0.00in /  0mm 216.0 W/m2
16:33 88.3 °F /  31.3 °C 24.8 °F /  -4 °C 29.68in /  1005hPa Calm   5.0mph /  8km/h 10% 0.00in /  0mm 213.0 W/m2
16:38 88.0 °F /  31.1 °C 24.6 °F /  -4.1 °C 29.68in /  1005hPa WSW 4.9mph /  7.9km/h 9.0mph /  14.5km/h 10% 0.00in /  0mm 199.0 W/m2
16:43 87.4 °F /  30.8 °C 24.3 °F /  -4.3 °C 29.68in /  1005hPa WSW 4.0mph /  6.4km/h 8.0mph /  12.9km/h 10% 0.00in /  0mm 197.0 W/m2
16:48 87.3 °F /  30.7 °C 24.1 °F /  -4.4 °C 29.69in /  1005.3hPa Calm   5.0mph /  8km/h 10% 0.00in /  0mm 192.0 W/m2
16:54 87.3 °F /  30.7 °C 24.1 °F /  -4.4 °C 29.69in /  1005.3hPa WSW 0.9mph /  1.4km/h 10.0mph /  16.1km/h 10% 0.00in /  0mm 174.0 W/m2
16:59 87.3 °F /  30.7 °C 24.1 °F /  -4.4 °C 29.69in /  1005.3hPa Calm   5.0mph /  8km/h 10% 0.00in /  0mm 148.0 W/m2
17:04 87.3 °F /  30.7 °C 24.1 °F /  -4.4 °C 29.69in /  1005.3hPa NNW 0.9mph /  1.4km/h 7.0mph /  11.3km/h 10% 0.00in /  0mm 125.0 W/m2
17:09 86.9 °F /  30.5 °C 21.2 °F /  -6 °C 29.70in /  1005.6hPa WSW 8.1mph /  13km/h 9.0mph /  14.5km/h 9% 0.00in /  0mm 109.0 W/m2
17:14 86.4 °F /  30.2 °C 23.4 °F /  -4.8 °C 29.70in /  1005.6hPa WSW 6.9mph /  11.1km/h 11.0mph /  17.7km/h 10% 0.00in /  0mm 100.0 W/m2
17:19 86.0 °F /  30 °C 23.2 °F /  -4.9 °C 29.70in /  1005.6hPa West 6.9mph /  11.1km/h 12.0mph /  19.3km/h 10% 0.00in /  0mm 104.0 W/m2
17:24 85.6 °F /  29.8 °C 22.8 °F /  -5.1 °C 29.70in /  1005.6hPa WSW 10.1mph /  16.3km/h 10.1mph /  16.3km/h 10% 0.00in /  0mm 95.0 W/m2
17:29 85.5 °F /  29.7 °C 22.6 °F /  -5.2 °C 29.70in /  1005.6hPa Calm   5.0mph /  8km/h 10% 0.00in /  0mm 88.0 W/m2
17:35 85.3 °F /  29.6 °C 22.6 °F /  -5.2 °C 29.70in /  1005.6hPa WSW 2.0mph /  3.2km/h 7.0mph /  11.3km/h 10% 0.00in /  0mm 88.0 W/m2
17:40 85.3 °F /  29.6 °C 22.6 °F /  -5.2 °C 29.70in /  1005.6hPa WNW 4.0mph /  6.4km/h 7.0mph /  11.3km/h 10% 0.00in /  0mm 91.0 W/m2
17:45 85.3 °F /  29.6 °C 22.6 °F /  -5.2 °C 29.70in /  1005.6hPa SW 2.9mph /  4.7km/h 11.0mph /  17.7km/h 10% 0.00in /  0mm 93.0 W/m2
17:50 85.3 °F /  29.6 °C 24.8 °F /  -4 °C 29.70in /  1005.6hPa West 2.9mph /  4.7km/h 11.0mph /  17.7km/h 11% 0.00in /  0mm 163.0 W/m2
17:55 85.5 °F /  29.7 °C 27.1 °F /  -2.7 °C 29.70in /  1005.6hPa WSW 4.9mph /  7.9km/h 10.0mph /  16.1km/h 12% 0.00in /  0mm 232.0 W/m2
18:00 85.3 °F /  29.6 °C 27.0 °F /  -2.8 °C 29.70in /  1005.6hPa West 4.9mph /  7.9km/h 9.0mph /  14.5km/h 12% 0.00in /  0mm 63.0 W/m2
18:05 84.7 °F /  29.3 °C 28.4 °F /  -2 °C 29.70in /  1005.6hPa SW 4.0mph /  6.4km/h 10.0mph /  16.1km/h 13% 0.00in /  0mm 56.0 W/m2
18:10 84.2 °F /  29 °C 28.0 °F /  -2.2 °C 30.10in /  1019.2hPa NW 6.0mph /  9.7km/h 8.0mph /  12.9km/h 13% 0.00in /  0mm 51.0 W/m2
18:15 83.8 °F /  28.8 °C 27.7 °F /  -2.4 °C 30.10in /  1019.2hPa WSW 6.9mph /  11.1km/h 12.0mph /  19.3km/h 13% 0.00in /  0mm 54.0 W/m2
18:21 83.5 °F /  28.6 °C 27.5 °F /  -2.5 °C 30.10in /  1019.2hPa SSW 6.0mph /  9.7km/h 13.0mph /  20.9km/h 13% 0.00in /  0mm 37.0 W/m2
18:26 82.9 °F /  28.3 °C 28.8 °F /  -1.8 °C 30.11in /  1019.5hPa SSE 4.0mph /  6.4km/h 10.0mph /  16.1km/h 14% 0.00in /  0mm 30.0 W/m2
18:31 82.4 °F /  28 °C 28.4 °F /  -2 °C 30.11in /  1019.5hPa West 2.0mph /  3.2km/h 16.0mph /  25.7km/h 14% 0.00in /  0mm 23.0 W/m2
18:36 81.9 °F /  27.7 °C 28.0 °F /  -2.2 °C 30.11in /  1019.5hPa WSW 0.9mph /  1.4km/h 7.0mph /  11.3km/h 14% 0.00in /  0mm 16.0 W/m2
18:41 81.7 °F /  27.6 °C 27.9 °F /  -2.3 °C 30.11in /  1019.5hPa Calm   10.0mph /  16.1km/h 14% 0.00in /  0mm 12.0 W/m2
18:46 81.3 °F /  27.4 °C 27.5 °F /  -2.5 °C 30.12in /  1019.9hPa SW 2.0mph /  3.2km/h 9.0mph /  14.5km/h 14% 0.00in /  0mm 7.0 W/m2
18:51 81.1 °F /  27.3 °C 29.1 °F /  -1.6 °C 30.12in /  1019.9hPa SW 0.9mph /  1.4km/h 9.0mph /  14.5km/h 15% 0.00in /  0mm 0.0 W/m2
18:56 81.0 °F /  27.2 °C 30.6 °F /  -0.8 °C 30.12in /  1019.9hPa WSW 2.9mph /  4.7km/h 7.0mph /  11.3km/h 16% 0.00in /  0mm 0.0 W/m2
19:01 80.4 °F /  26.9 °C 30.2 °F /  -1 °C 30.12in /  1019.9hPa WSW 2.0mph /  3.2km/h 9.0mph /  14.5km/h 16% 0.00in /  0mm 7.0 W/m2
19:06 80.2 °F /  26.8 °C 30.0 °F /  -1.1 °C 30.13in /  1020.2hPa SW 4.9mph /  7.9km/h 9.0mph /  14.5km/h 16% 0.00in /  0mm 0.0 W/m2
19:11 80.1 °F /  26.7 °C 31.3 °F /  -0.4 °C 30.13in /  1020.2hPa West 2.0mph /  3.2km/h 8.0mph /  12.9km/h 17% 0.00in /  0mm 0.0 W/m2
19:16 79.9 °F /  26.6 °C 31.1 °F /  -0.5 °C 30.13in /  1020.2hPa SW 4.0mph /  6.4km/h 8.0mph /  12.9km/h 17% 0.00in /  0mm 0.0 W/m2
19:21 79.5 °F /  26.4 °C 30.9 °F /  -0.6 °C 30.13in /  1020.2hPa WSW 8.9mph /  14.3km/h 11.0mph /  17.7km/h 17% 0.00in /  0mm 0.0 W/m2
19:27 79.2 °F /  26.2 °C 32.0 °F /  0 °C 30.14in /  1020.5hPa WNW 0.9mph /  1.4km/h 7.0mph /  11.3km/h 18% 0.00in /  0mm 0.0 W/m2
19:32 78.8 °F /  26 °C 33.1 °F /  0.6 °C 30.14in /  1020.5hPa West 2.9mph /  4.7km/h 7.0mph /  11.3km/h 19% 0.00in /  0mm 0.0 W/m2
19:37 78.4 °F /  25.8 °C 32.7 °F /  0.4 °C 30.14in /  1020.5hPa Calm   7.0mph /  11.3km/h 19% 0.00in /  0mm 0.0 W/m2
19:42 78.3 °F /  25.7 °C 32.5 °F /  0.3 °C 30.16in /  1021.2hPa Calm   4.0mph /  6.4km/h 19% 0.00in /  0mm 0.0 W/m2
19:47 78.1 °F /  25.6 °C 33.8 °F /  1 °C 30.15in /  1020.9hPa West 2.0mph /  3.2km/h 4.0mph /  6.4km/h 20% 0.00in /  0mm 0.0 W/m2
19:52 77.9 °F /  25.5 °C 33.6 °F /  0.9 °C 30.15in /  1020.9hPa West 0.9mph /  1.4km/h 6.0mph /  9.7km/h 20% 0.00in /  0mm 0.0 W/m2
19:57 77.7 °F /  25.4 °C 33.4 °F /  0.8 °C 30.16in /  1021.2hPa WSW 4.0mph /  6.4km/h 5.0mph /  8km/h 20% 0.00in /  0mm 0.0 W/m2
20:02 77.5 °F /  25.3 °C 34.5 °F /  1.4 °C 30.16in /  1021.2hPa WNW 2.0mph /  3.2km/h 5.0mph /  8km/h 21% 0.00in /  0mm 0.0 W/m2
20:07 77.4 °F /  25.2 °C 34.3 °F /  1.3 °C 30.17in /  1021.6hPa West 0.9mph /  1.4km/h 6.0mph /  9.7km/h 21% 0.00in /  0mm 0.0 W/m2
20:12 77.2 °F /  25.1 °C 35.4 °F /  1.9 °C 30.17in /  1021.6hPa West 4.0mph /  6.4km/h 6.0mph /  9.7km/h 22% 0.00in /  0mm 0.0 W/m2
20:18 76.8 °F /  24.9 °C 35.1 °F /  1.7 °C 30.18in /  1021.9hPa Calm   3.0mph /  4.8km/h 22% 0.00in /  0mm 0.0 W/m2
20:23 76.6 °F /  24.8 °C 34.9 °F /  1.6 °C 30.18in /  1021.9hPa WSW 0.9mph /  1.4km/h 3.0mph /  4.8km/h 22% 0.00in /  0mm 0.0 W/m2
20:28 76.6 °F /  24.8 °C 34.9 °F /  1.6 °C 30.18in /  1021.9hPa Calm   5.0mph /  8km/h 22% 0.00in /  0mm 0.0 W/m2
20:33 76.5 °F /  24.7 °C 36.0 °F /  2.2 °C 30.18in /  1021.9hPa Calm   5.0mph /  8km/h 23% 0.00in /  0mm 0.0 W/m2
20:38 76.3 °F /  24.6 °C 35.8 °F /  2.1 °C 30.19in /  1022.2hPa West 2.0mph /  3.2km/h 4.0mph /  6.4km/h 23% 0.00in /  0mm 0.0 W/m2
20:41 76.3 °F /  24.6 °C 35.8 °F /  2.1 °C 30.19in /  1022.2hPa WNW 0.9mph /  1.4km/h 2.0mph /  3.2km/h 23% 0.00in /  0mm 0.0 W/m2
20:46 75.9 °F /  24.4 °C 34.3 °F /  1.3 °C 30.19in /  1022.2hPa West 2.9mph /  4.7km/h 7.0mph /  11.3km/h 22% 0.00in /  0mm 0.0 W/m2
20:51 75.9 °F /  24.4 °C 35.4 °F /  1.9 °C 30.19in /  1022.2hPa West 4.9mph /  7.9km/h 5.0mph /  8km/h 23% 0.00in /  0mm 0.0 W/m2
20:57 75.7 °F /  24.3 °C 34.2 °F /  1.2 °C 30.19in /  1022.2hPa WNW 0.9mph /  1.4km/h 5.0mph /  8km/h 22% 0.00in /  0mm 0.0 W/m2
21:02 75.6 °F /  24.2 °C 34.0 °F /  1.1 °C 30.20in /  1022.6hPa Calm   6.0mph /  9.7km/h 22% 0.00in /  0mm 0.0 W/m2
21:07 75.6 °F /  24.2 °C 32.9 °F /  0.5 °C 30.21in /  1022.9hPa West 2.0mph /  3.2km/h 5.0mph /  8km/h 21% 0.00in /  0mm 0.0 W/m2
21:12 75.4 °F /  24.1 °C 32.7 °F /  0.4 °C 30.21in /  1022.9hPa Calm   5.0mph /  8km/h 21% 0.00in /  0mm 0.0 W/m2
21:17 75.2 °F /  24 °C 32.5 °F /  0.3 °C 30.21in /  1022.9hPa Calm   1.0mph /  1.6km/h 21% 0.00in /  0mm 0.0 W/m2
21:22 75.0 °F /  23.9 °C 32.4 °F /  0.2 °C 30.21in /  1022.9hPa Calm   3.0mph /  4.8km/h 21% 0.00in /  0mm 0.0 W/m2
21:27 74.8 °F /  23.8 °C 32.4 °F /  0.2 °C 30.21in /  1022.9hPa West 2.0mph /  3.2km/h 4.0mph /  6.4km/h 21% 0.00in /  0mm 0.0 W/m2
21:32 74.7 °F /  23.7 °C 32.2 °F /  0.1 °C 30.21in /  1022.9hPa WNW 4.0mph /  6.4km/h 7.0mph /  11.3km/h 21% 0.00in /  0mm 0.0 W/m2
21:37 74.5 °F /  23.6 °C 32.0 °F /  0 °C 30.21in /  1022.9hPa West 8.1mph /  13km/h 11.0mph /  17.7km/h 21% 0.00in /  0mm 0.0 W/m2
21:42 74.3 °F /  23.5 °C 31.8 °F /  -0.1 °C 30.21in /  1022.9hPa West 0.9mph /  1.4km/h 7.0mph /  11.3km/h 21% 0.00in /  0mm 0.0 W/m2
21:48 74.1 °F /  23.4 °C 31.6 °F /  -0.2 °C 30.22in /  1023.2hPa West 2.0mph /  3.2km/h 4.0mph /  6.4km/h 21% 0.00in /  0mm 0.0 W/m2
21:53 74.1 °F /  23.4 °C 31.6 °F /  -0.2 °C 30.22in /  1023.2hPa Calm   3.0mph /  4.8km/h 21% 0.00in /  0mm 0.0 W/m2
21:58 73.9 °F /  23.3 °C 31.5 °F /  -0.3 °C 30.22in /  1023.2hPa WNW 2.0mph /  3.2km/h 5.0mph /  8km/h 21% 0.00in /  0mm 0.0 W/m2
22:03 73.9 °F /  23.3 °C 31.5 °F /  -0.3 °C 30.22in /  1023.2hPa WSW 0.9mph /  1.4km/h 5.0mph /  8km/h 21% 0.00in /  0mm 0.0 W/m2
22:08 73.8 °F /  23.2 °C 31.5 °F /  -0.3 °C 30.22in /  1023.2hPa WSW 4.0mph /  6.4km/h 4.0mph /  6.4km/h 21% 0.00in /  0mm 0.0 W/m2
22:13 73.8 °F /  23.2 °C 31.5 °F /  -0.3 °C 30.23in /  1023.6hPa West 2.0mph /  3.2km/h 4.0mph /  6.4km/h 21% 0.00in /  0mm 0.0 W/m2
22:18 73.6 °F /  23.1 °C 31.3 °F /  -0.4 °C 30.23in /  1023.6hPa WSW 2.9mph /  4.7km/h 3.0mph /  4.8km/h 21% 0.00in /  0mm 0.0 W/m2
22:23 73.6 °F /  23.1 °C 31.3 °F /  -0.4 °C 30.23in /  1023.6hPa Calm   5.0mph /  8km/h 21% 0.00in /  0mm 0.0 W/m2
22:28 73.4 °F /  23 °C 31.1 °F /  -0.5 °C 30.24in /  1023.9hPa West 0.9mph /  1.4km/h 3.0mph /  4.8km/h 21% 0.00in /  0mm 0.0 W/m2
22:33 73.2 °F /  22.9 °C 30.9 °F /  -0.6 °C 30.24in /  1023.9hPa West 0.9mph /  1.4km/h 2.0mph /  3.2km/h 21% 0.00in /  0mm 0.0 W/m2
22:39 73.2 °F /  22.9 °C 30.9 °F /  -0.6 °C 30.24in /  1023.9hPa West 2.0mph /  3.2km/h 3.0mph /  4.8km/h 21% 0.00in /  0mm 0.0 W/m2
22:45 73.0 °F /  22.8 °C 30.7 °F /  -0.7 °C 30.24in /  1023.9hPa Calm   5.0mph /  8km/h 21% 0.00in /  0mm 0.0 W/m2
22:50 73.0 °F /  22.8 °C 32.0 °F /  0 °C 30.24in /  1023.9hPa Calm     22% 0.00in /  0mm 0.0 W/m2
22:55 73.0 °F /  22.8 °C 32.0 °F /  0 °C 30.24in /  1023.9hPa Calm   1.0mph /  1.6km/h 22% 0.00in /  0mm 0.0 W/m2
23:00 72.9 °F /  22.7 °C 32.9 °F /  0.5 °C 30.24in /  1023.9hPa Calm   1.0mph /  1.6km/h 23% 0.00in /  0mm 0.0 W/m2
23:05 72.9 °F /  22.7 °C 32.9 °F /  0.5 °C 30.24in /  1023.9hPa Calm     23% 0.00in /  0mm 0.0 W/m2
23:10 72.9 °F /  22.7 °C 34.0 °F /  1.1 °C 30.24in /  1023.9hPa Calm     24% 0.00in /  0mm 0.0 W/m2
23:15 72.7 °F /  22.6 °C 33.8 °F /  1 °C 30.24in /  1023.9hPa Calm     24% 0.00in /  0mm 0.0 W/m2
23:20 72.7 °F /  22.6 °C 33.8 °F /  1 °C 30.24in /  1023.9hPa Calm     24% 0.00in /  0mm 0.0 W/m2
23:25 72.3 °F /  22.4 °C 33.4 °F /  0.8 °C 30.24in /  1023.9hPa Calm   1.0mph /  1.6km/h 24% 0.00in /  0mm 0.0 W/m2
23:31 72.3 °F /  22.4 °C 33.4 °F /  0.8 °C 30.24in /  1023.9hPa Calm     24% 0.00in /  0mm 0.0 W/m2
23:36 72.1 °F /  22.3 °C 34.3 °F /  1.3 °C 30.24in /  1023.9hPa Calm     25% 0.00in /  0mm 0.0 W/m2
23:41 72.0 °F /  22.2 °C 34.2 °F /  1.2 °C 30.24in /  1023.9hPa Calm     25% 0.00in /  0mm 0.0 W/m2
23:46 71.8 °F /  22.1 °C 34.0 °F /  1.1 °C 30.24in /  1023.9hPa Calm     25% 0.00in /  0mm 0.0 W/m2
23:51 71.8 °F /  22.1 °C 34.0 °F /  1.1 °C 30.24in /  1023.9hPa Calm     25% 0.00in /  0mm 0.0 W/m2
23:56 71.6 °F /  22 °C 34.0 °F /  1.1 °C 30.24in /  1023.9hPa Calm     25% 0.00in /  0mm 0.0 W/m2
Olympia, Windhoek, Namibia
Compliments of Weather Underground - 3.25 mb